Terminal Aerodrome Forecast
Issued by NWS

Home | Current Version | Previous Version | Text Only | Print | Product List | Glossary On
Versions: 1 2 3 4 5 6 7 8 9 10 11 12 13 14 15 16 17 18 19 20
000
FTUS42 KTBW 191141
TAFPGD
TAF
KPGD 191141Z 1912/2012 VRB03KT 6SM BR FEW005 SCT250
      TEMPO 1912/1913 3SM BR
     FM191400 16008KT P6SM SCT020 SCT250
     FM191600 20013G22KT P6SM SCT035 SCT250
     FM192000 23013G22KT P6SM SCT050 SCT250
     FM200100 20005KT P6SM SCT050 SCT250
     FM200800 19003KT 6SM BR BKN250=

USA.gov is the U.S. government's official web portal to all federal, state and local government web resources and services.